sensor_id;sensor_type;location;lat;lon;timestamp;pressure;altitude;pressure_sealevel;temperature;humidity
2549;BME280;1284;53.520;10.248;2022-11-15T00:01:49;100436.75;;;9.25;94.29
2549;BME280;1284;53.520;10.248;2022-11-15T00:07:17;100432.91;;;9.26;94.55
2549;BME280;1284;53.520;10.248;2022-11-15T00:10:01;100423.00;;;9.10;94.69
2549;BME280;1284;53.520;10.248;2022-11-15T00:12:45;100432.28;;;9.13;95.24
2549;BME280;1284;53.520;10.248;2022-11-15T00:15:29;100422.31;;;9.14;95.17
2549;BME280;1284;53.520;10.248;2022-11-15T00:18:14;100421.16;;;9.15;95.19
2549;BME280;1284;53.520;10.248;2022-11-15T00:21:07;100427.44;;;9.03;95.67
2549;BME280;1284;53.520;10.248;2022-11-15T00:23:53;100434.97;;;9.13;94.98
2549;BME280;1284;53.520;10.248;2022-11-15T00:26:36;100438.59;;;9.05;95.31
2549;BME280;1284;53.520;10.248;2022-11-15T00:29:20;100434.97;;;9.13;95.59
2549;BME280;1284;53.520;10.248;2022-11-15T00:32:04;100437.81;;;9.04;95.44
2549;BME280;1284;53.520;10.248;2022-11-15T00:34:48;100436.00;;;9.08;95.66
2549;BME280;1284;53.520;10.248;2022-11-15T00:37:32;100440.72;;;8.80;96.75
2549;BME280;1284;53.520;10.248;2022-11-15T00:40:16;100436.97;;;9.00;96.68
2549;BME280;1284;53.520;10.248;2022-11-15T00:43:00;100434.53;;;9.11;96.36
2549;BME280;1284;53.520;10.248;2022-11-15T00:45:44;100440.59;;;9.08;96.28
2549;BME280;1284;53.520;10.248;2022-11-15T00:48:28;100428.44;;;9.14;95.88
2549;BME280;1284;53.520;10.248;2022-11-15T00:51:12;100433.88;;;9.18;95.36
2549;BME280;1284;53.520;10.248;2022-11-15T00:53:56;100446.88;;;9.16;95.26
2549;BME280;1284;53.520;10.248;2022-11-15T00:56:40;100427.50;;;9.06;94.88
2549;BME280;1284;53.520;10.248;2022-11-15T00:59:24;100437.03;;;9.04;95.00
2549;BME280;1284;53.520;10.248;2022-11-15T01:02:08;100432.19;;;9.09;95.13
2549;BME280;1284;53.520;10.248;2022-11-15T01:04:52;100435.13;;;9.04;95.36
2549;BME280;1284;53.520;10.248;2022-11-15T01:07:36;100433.66;;;9.07;95.43
2549;BME280;1284;53.520;10.248;2022-11-15T01:10:21;100416.75;;;9.06;95.66
2549;BME280;1284;53.520;10.248;2022-11-15T01:13:05;100420.38;;;9.14;95.61
2549;BME280;1284;53.520;10.248;2022-11-15T01:15:49;100424.28;;;9.17;95.34
2549;BME280;1284;53.520;10.248;2022-11-15T01:18:33;100418.41;;;9.11;95.66
2549;BME280;1284;53.520;10.248;2022-11-15T01:21:18;100409.91;;;9.09;95.23
2549;BME280;1284;53.520;10.248;2022-11-15T01:24:03;100412.31;;;9.14;95.43
2549;BME280;1284;53.520;10.248;2022-11-15T01:26:47;100406.88;;;9.10;95.28
2549;BME280;1284;53.520;10.248;2022-11-15T01:29:31;100414.44;;;9.05;96.06
2549;BME280;1284;53.520;10.248;2022-11-15T01:32:15;100400.09;;;9.17;95.20
2549;BME280;1284;53.520;10.248;2022-11-15T01:35:00;100399.56;;;8.92;96.02
2549;BME280;1284;53.520;10.248;2022-11-15T01:37:43;100404.06;;;9.03;96.11
2549;BME280;1284;53.520;10.248;2022-11-15T01:40:27;100398.41;;;9.08;94.99
2549;BME280;1284;53.520;10.248;2022-11-15T01:43:21;100394.66;;;9.13;95.11
2549;BME280;1284;53.520;10.248;2022-11-15T01:46:28;100397.28;;;9.09;95.23
2549;BME280;1284;53.520;10.248;2022-11-15T01:49:16;100393.41;;;8.91;95.79
2549;BME280;1284;53.520;10.248;2022-11-15T01:52:03;100398.25;;;9.01;95.39
2549;BME280;1284;53.520;10.248;2022-11-15T01:54:53;100396.53;;;8.93;95.38
2549;BME280;1284;53.520;10.248;2022-11-15T01:57:40;100387.97;;;8.88;95.77
2549;BME280;1284;53.520;10.248;2022-11-15T02:00:25;100387.19;;;8.87;95.90
2549;BME280;1284;53.520;10.248;2022-11-15T02:03:09;100373.41;;;8.89;96.21
2549;BME280;1284;53.520;10.248;2022-11-15T02:05:53;100363.00;;;8.87;95.57
2549;BME280;1284;53.520;10.248;2022-11-15T02:08:37;100380.94;;;8.83;95.07
2549;BME280;1284;53.520;10.248;2022-11-15T02:11:21;100374.19;;;8.89;95.49
2549;BME280;1284;53.520;10.248;2022-11-15T02:14:06;100362.84;;;8.96;94.88
2549;BME280;1284;53.520;10.248;2022-11-15T02:17:21;100358.69;;;8.83;96.08
2549;BME280;1284;53.520;10.248;2022-11-15T02:20:51;100368.88;;;8.58;96.86
2549;BME280;1284;53.520;10.248;2022-11-15T02:32:45;100375.78;;;8.75;96.89
2549;BME280;1284;53.520;10.248;2022-11-15T02:38:58;100357.72;;;8.91;96.09
2549;BME280;1284;53.520;10.248;2022-11-15T02:44:37;100348.13;;;8.90;96.34
2549;BME280;1284;53.520;10.248;2022-11-15T02:47:24;100337.88;;;8.95;95.97
2549;BME280;1284;53.520;10.248;2022-11-15T02:50:12;100355.28;;;9.01;96.09
2549;BME280;1284;53.520;10.248;2022-11-15T02:52:57;100341.56;;;9.06;95.77
2549;BME280;1284;53.520;10.248;2022-11-15T02:55:43;100355.41;;;9.08;95.61
2549;BME280;1284;53.520;10.248;2022-11-15T03:01:38;100365.94;;;8.98;95.08
2549;BME280;1284;53.520;10.248;2022-11-15T03:17:02;100339.56;;;8.84;95.55
2549;BME280;1284;53.520;10.248;2022-11-15T03:19:53;100347.19;;;8.82;95.42
2549;BME280;1284;53.520;10.248;2022-11-15T03:22:40;100349.34;;;8.77;95.44
2549;BME280;1284;53.520;10.248;2022-11-15T03:25:28;100346.59;;;8.73;95.85
2549;BME280;1284;53.520;10.248;2022-11-15T03:28:17;100351.09;;;8.69;95.48
2549;BME280;1284;53.520;10.248;2022-11-15T03:31:04;100355.94;;;8.64;96.16
2549;BME280;1284;53.520;10.248;2022-11-15T03:34:12;100346.44;;;8.66;96.20
2549;BME280;1284;53.520;10.248;2022-11-15T03:36:59;100348.00;;;8.52;96.77
2549;BME280;1284;53.520;10.248;2022-11-15T03:39:43;100341.09;;;8.51;97.54
2549;BME280;1284;53.520;10.248;2022-11-15T03:42:31;100350.59;;;8.64;97.48
2549;BME280;1284;53.520;10.248;2022-11-15T03:45:31;100342.44;;;8.76;97.10
2549;BME280;1284;53.520;10.248;2022-11-15T03:48:22;100326.97;;;8.88;96.62
2549;BME280;1284;53.520;10.248;2022-11-15T03:51:08;100336.34;;;8.79;96.81
2549;BME280;1284;53.520;10.248;2022-11-15T03:53:52;100340.31;;;8.85;96.51
2549;BME280;1284;53.520;10.248;2022-11-15T03:56:37;100341.06;;;9.01;96.11
2549;BME280;1284;53.520;10.248;2022-11-15T03:59:20;100330.59;;;8.96;96.06
2549;BME280;1284;53.520;10.248;2022-11-15T04:02:05;100329.81;;;8.95;96.21
2549;BME280;1284;53.520;10.248;2022-11-15T04:04:48;100326.78;;;8.97;96.31
2549;BME280;1284;53.520;10.248;2022-11-15T04:07:32;100328.00;;;8.99;96.14
2549;BME280;1284;53.520;10.248;2022-11-15T04:10:16;100323.47;;;9.03;95.88
2549;BME280;1284;53.520;10.248;2022-11-15T04:13:02;100328.34;;;8.98;96.06
2549;BME280;1284;53.520;10.248;2022-11-15T04:15:45;100326.00;;;8.96;96.58
2549;BME280;1284;53.520;10.248;2022-11-15T04:18:30;100326.84;;;9.00;96.39
2549;BME280;1284;53.520;10.248;2022-11-15T04:21:13;100334.53;;;8.83;96.24
2549;BME280;1284;53.520;10.248;2022-11-15T04:24:16;100337.81;;;8.92;96.59
2549;BME280;1284;53.520;10.248;2022-11-15T04:27:00;100328.59;;;8.93;96.53
2549;BME280;1284;53.520;10.248;2022-11-15T04:29:45;100333.56;;;8.91;96.33
2549;BME280;1284;53.520;10.248;2022-11-15T04:32:29;100329.59;;;8.85;96.51
2549;BME280;1284;53.520;10.248;2022-11-15T04:35:13;100329.88;;;8.80;96.34
2549;BME280;1284;53.520;10.248;2022-11-15T04:37:57;100337.84;;;8.76;96.19
2549;BME280;1284;53.520;10.248;2022-11-15T04:40:44;100338.28;;;8.78;96.49
2549;BME280;1284;53.520;10.248;2022-11-15T04:43:28;100349.56;;;8.68;96.93
2549;BME280;1284;53.520;10.248;2022-11-15T04:46:12;100335.84;;;8.73;97.38
2549;BME280;1284;53.520;10.248;2022-11-15T04:48:56;100338.00;;;8.83;97.23
2549;BME280;1284;53.520;10.248;2022-11-15T04:51:40;100342.56;;;8.83;96.98
2549;BME280;1284;53.520;10.248;2022-11-15T04:54:24;100341.25;;;8.92;97.14
2549;BME280;1284;53.520;10.248;2022-11-15T04:57:08;100337.38;;;8.90;97.21
2549;BME280;1284;53.520;10.248;2022-11-15T04:59:52;100348.13;;;8.90;97.69
2549;BME280;1284;53.520;10.248;2022-11-15T05:02:36;100335.38;;;8.87;97.73
2549;BME280;1284;53.520;10.248;2022-11-15T05:05:39;100338.66;;;8.96;97.84
2549;BME280;1284;53.520;10.248;2022-11-15T05:08:23;100334.66;;;9.05;97.72
2549;BME280;1284;53.520;10.248;2022-11-15T05:11:07;100335.94;;;9.12;96.92
2549;BME280;1284;53.520;10.248;2022-11-15T05:13:52;100333.31;;;9.15;96.98
2549;BME280;1284;53.520;10.248;2022-11-15T05:16:36;100339.38;;;9.12;96.67
2549;BME280;1284;53.520;10.248;2022-11-15T05:19:21;100326.91;;;9.04;96.97
2549;BME280;1284;53.520;10.248;2022-11-15T05:22:05;100330.97;;;9.14;96.36
2549;BME280;1284;53.520;10.248;2022-11-15T05:24:49;100333.88;;;9.05;96.32
2549;BME280;1284;53.520;10.248;2022-11-15T05:27:33;100329.28;;;9.05;96.64
2549;BME280;1284;53.520;10.248;2022-11-15T05:30:17;100326.16;;;9.03;96.55
2549;BME280;1284;53.520;10.248;2022-11-15T05:33:01;100323.06;;;9.01;96.69
2549;BME280;1284;53.520;10.248;2022-11-15T05:35:54;100338.75;;;8.99;96.42
2549;BME280;1284;53.520;10.248;2022-11-15T05:38:41;100323.47;;;9.03;96.38
2549;BME280;1284;53.520;10.248;2022-11-15T05:41:35;100319.03;;;9.11;96.09
2549;BME280;1284;53.520;10.248;2022-11-15T05:44:23;100324.03;;;9.13;95.54
2549;BME280;1284;53.520;10.248;2022-11-15T05:47:12;100317.13;;;9.12;95.09
2549;BME280;1284;53.520;10.248;2022-11-15T05:49:57;100321.06;;;9.18;94.92
2549;BME280;1284;53.520;10.248;2022-11-15T05:52:42;100321.84;;;9.18;94.80
2549;BME280;1284;53.520;10.248;2022-11-15T05:55:27;100324.03;;;9.13;94.98
2549;BME280;1284;53.520;10.248;2022-11-15T05:58:11;100325.19;;;9.12;94.84
2549;BME280;1284;53.520;10.248;2022-11-15T06:00:54;100326.72;;;9.13;94.75
2549;BME280;1284;53.520;10.248;2022-11-15T06:03:38;100336.63;;;9.08;94.84
2549;BME280;1284;53.520;10.248;2022-11-15T06:06:22;100334.06;;;8.96;94.94
2549;BME280;1284;53.520;10.248;2022-11-15T06:09:06;100335.88;;;8.92;94.64
2549;BME280;1284;53.520;10.248;2022-11-15T06:11:50;100332.44;;;8.92;95.07
2549;BME280;1284;53.520;10.248;2022-11-15T06:14:34;100347.34;;;8.89;94.97
2549;BME280;1284;53.520;10.248;2022-11-15T06:17:18;100347.25;;;8.86;95.36
2549;BME280;1284;53.520;10.248;2022-11-15T06:20:02;100353.75;;;8.85;95.34
2549;BME280;1284;53.520;10.248;2022-11-15T06:22:47;100341.09;;;8.85;95.72
2549;BME280;1284;53.520;10.248;2022-11-15T06:25:31;100353.41;;;8.86;96.10
2549;BME280;1284;53.520;10.248;2022-11-15T06:28:15;100352.13;;;8.80;96.09
2549;BME280;1284;53.520;10.248;2022-11-15T06:31:10;100350.72;;;8.86;96.17
2549;BME280;1284;53.520;10.248;2022-11-15T06:33:54;100360.91;;;8.96;96.33
2549;BME280;1284;53.520;10.248;2022-11-15T06:36:38;100355.75;;;8.88;96.22
2549;BME280;1284;53.520;10.248;2022-11-15T06:39:22;100364.88;;;9.02;96.04
2549;BME280;1284;53.520;10.248;2022-11-15T06:45:12;100360.22;;;8.99;96.12
2549;BME280;1284;53.520;10.248;2022-11-15T06:47:56;100369.81;;;9.00;96.19
2549;BME280;1284;53.520;10.248;2022-11-15T06:50:40;100368.78;;;9.05;96.09
2549;BME280;1284;53.520;10.248;2022-11-15T06:53:26;100365.38;;;9.08;95.94
2549;BME280;1284;53.520;10.248;2022-11-15T06:56:10;100361.66;;;9.13;95.92
2549;BME280;1284;53.520;10.248;2022-11-15T06:58:55;100357.19;;;9.20;96.12
2549;BME280;1284;53.520;10.248;2022-11-15T07:01:39;100368.44;;;9.26;94.96
2549;BME280;1284;53.520;10.248;2022-11-15T07:04:23;100371.84;;;9.23;96.03
2549;BME280;1284;53.520;10.248;2022-11-15T07:07:07;100364.91;;;9.22;95.78
2549;BME280;1284;53.520;10.248;2022-11-15T07:09:51;100372.63;;;9.23;95.76
2549;BME280;1284;53.520;10.248;2022-11-15T07:12:35;100369.72;;;9.32;95.61
2549;BME280;1284;53.520;10.248;2022-11-15T07:15:24;100368.44;;;9.45;95.10
2549;BME280;1284;53.520;10.248;2022-11-15T07:18:09;100375.38;;;9.46;95.01
2549;BME280;1284;53.520;10.248;2022-11-15T07:20:53;100378.28;;;9.37;94.97
2549;BME280;1284;53.520;10.248;2022-11-15T07:23:38;100377.53;;;9.37;95.13
2549;BME280;1284;53.520;10.248;2022-11-15T07:26:22;100377.66;;;9.44;95.13
2549;BME280;1284;53.520;10.248;2022-11-15T07:29:06;100382.66;;;9.45;95.49
2549;BME280;1284;53.520;10.248;2022-11-15T07:31:50;100390.09;;;9.52;95.35
2549;BME280;1284;53.520;10.248;2022-11-15T07:34:34;100385.50;;;9.52;95.44
2549;BME280;1284;53.520;10.248;2022-11-15T07:37:18;100385.22;;;9.57;94.91
2549;BME280;1284;53.520;10.248;2022-11-15T07:40:03;100400.78;;;9.48;95.21
2549;BME280;1284;53.520;10.248;2022-11-15T07:42:47;100382.41;;;9.50;95.24
2549;BME280;1284;53.520;10.248;2022-11-15T07:45:42;100387.53;;;9.59;95.77
2549;BME280;1284;53.520;10.248;2022-11-15T07:48:26;100385.78;;;9.66;95.05
2549;BME280;1284;53.520;10.248;2022-11-15T07:51:12;100389.72;;;9.72;94.62
2549;BME280;1284;53.520;10.248;2022-11-15T07:53:57;100393.56;;;9.71;94.63
2549;BME280;1284;53.520;10.248;2022-11-15T07:56:41;100390.59;;;9.76;94.86
2549;BME280;1284;53.520;10.248;2022-11-15T07:59:25;100388.09;;;9.68;95.14
2549;BME280;1284;53.520;10.248;2022-11-15T08:02:09;100394.31;;;9.72;94.93
2549;BME280;1284;53.520;10.248;2022-11-15T08:04:53;100390.53;;;9.73;94.46
2549;BME280;1284;53.520;10.248;2022-11-15T08:07:37;100392.72;;;9.67;95.03
2549;BME280;1284;53.520;10.248;2022-11-15T08:10:22;100391.63;;;9.72;95.24
2549;BME280;1284;53.520;10.248;2022-11-15T08:13:09;100382.31;;;9.66;95.17
2549;BME280;1284;53.520;10.248;2022-11-15T08:16:00;100378.34;;;9.79;95.03
2549;BME280;1284;53.520;10.248;2022-11-15T08:18:45;100380.63;;;9.77;94.63
2549;BME280;1284;53.520;10.248;2022-11-15T08:24:13;100388.16;;;9.90;94.73
2549;BME280;1284;53.520;10.248;2022-11-15T08:26:57;100390.06;;;9.90;94.61
2549;BME280;1284;53.520;10.248;2022-11-15T08:29:43;100383.47;;;9.87;94.52
2549;BME280;1284;53.520;10.248;2022-11-15T08:32:27;100383.34;;;9.99;94.27
2549;BME280;1284;53.520;10.248;2022-11-15T08:35:11;100379.00;;;9.95;94.27
2549;BME280;1284;53.520;10.248;2022-11-15T08:37:55;100377.88;;;9.96;94.53
2549;BME280;1284;53.520;10.248;2022-11-15T08:40:39;100374.47;;;9.99;94.03
2549;BME280;1284;53.520;10.248;2022-11-15T08:43:23;100387.28;;;10.06;93.61
2549;BME280;1284;53.520;10.248;2022-11-15T08:46:11;100387.31;;;9.86;94.57
2549;BME280;1284;53.520;10.248;2022-11-15T08:48:56;100387.59;;;10.00;94.72
2549;BME280;1284;53.520;10.248;2022-11-15T08:51:40;100385.31;;;10.02;94.22
2549;BME280;1284;53.520;10.248;2022-11-15T08:54:24;100373.28;;;10.16;93.87
2549;BME280;1284;53.520;10.248;2022-11-15T08:57:07;100363.00;;;10.02;94.58
2549;BME280;1284;53.520;10.248;2022-11-15T08:59:53;100373.97;;;10.13;94.19
2549;BME280;1284;53.520;10.248;2022-11-15T09:02:38;100375.28;;;10.22;94.57
2549;BME280;1284;53.520;10.248;2022-11-15T09:05:22;100373.28;;;10.38;95.00
2549;BME280;1284;53.520;10.248;2022-11-15T09:08:07;100373.31;;;10.64;94.85
2549;BME280;1284;53.520;10.248;2022-11-15T09:10:51;100383.75;;;10.96;94.42
2549;BME280;1284;53.520;10.248;2022-11-15T09:13:36;100377.59;;;11.25;94.75
2549;BME280;1284;53.520;10.248;2022-11-15T09:16:26;100380.13;;;11.40;94.10
2549;BME280;1284;53.520;10.248;2022-11-15T09:19:10;100384.25;;;11.64;94.02
2549;BME280;1284;53.520;10.248;2022-11-15T09:21:54;100382.16;;;11.80;93.63
2549;BME280;1284;53.520;10.248;2022-11-15T09:24:38;100378.50;;;11.99;92.21
2549;BME280;1284;53.520;10.248;2022-11-15T09:27:22;100380.66;;;11.83;92.07
2549;BME280;1284;53.520;10.248;2022-11-15T09:30:06;100388.97;;;12.04;91.89
2549;BME280;1284;53.520;10.248;2022-11-15T09:32:50;100391.03;;;12.17;91.12
2549;BME280;1284;53.520;10.248;2022-11-15T09:35:34;100392.31;;;12.30;90.06
2549;BME280;1284;53.520;10.248;2022-11-15T09:38:18;100394.03;;;12.52;89.43
2549;BME280;1284;53.520;10.248;2022-11-15T09:47:49;100398.06;;;12.73;87.59
2549;BME280;1284;53.520;10.248;2022-11-15T09:50:49;100402.66;;;12.72;88.23
2549;BME280;1284;53.520;10.248;2022-11-15T09:56:20;100400.47;;;12.37;87.38
2549;BME280;1284;53.520;10.248;2022-11-15T10:04:15;100394.72;;;12.42;88.06
2549;BME280;1284;53.520;10.248;2022-11-15T10:06:47;100388.16;;;12.43;88.08
2549;BME280;1284;53.520;10.248;2022-11-15T10:09:24;100388.22;;;12.50;87.50
2549;BME280;1284;53.520;10.248;2022-11-15T10:11:51;100394.38;;;12.47;88.13
2549;BME280;1284;53.520;10.248;2022-11-15T10:14:22;100387.84;;;12.48;88.30
2549;BME280;1284;53.520;10.248;2022-11-15T10:19:55;100378.88;;;12.41;88.23
2549;BME280;1284;53.520;10.248;2022-11-15T10:22:28;100368.19;;;12.51;88.21
2549;BME280;1284;53.520;10.248;2022-11-15T10:25:22;100376.66;;;12.50;88.15
2549;BME280;1284;53.520;10.248;2022-11-15T10:27:54;100376.25;;;12.48;88.83
2549;BME280;1284;53.520;10.248;2022-11-15T10:30:21;100369.66;;;12.45;89.36
2549;BME280;1284;53.520;10.248;2022-11-15T10:32:47;100358.47;;;12.47;89.40
2549;BME280;1284;53.520;10.248;2022-11-15T10:35:22;100367.41;;;12.51;89.86
2549;BME280;1284;53.520;10.248;2022-11-15T10:37:48;100364.31;;;12.52;89.80
2549;BME280;1284;53.520;10.248;2022-11-15T10:40:22;100364.16;;;12.31;90.96
2549;BME280;1284;53.520;10.248;2022-11-15T10:42:49;100366.13;;;12.38;91.03
2549;BME280;1284;53.520;10.248;2022-11-15T10:45:30;100355.81;;;12.50;90.73
2549;BME280;1284;53.520;10.248;2022-11-15T10:50:39;100347.38;;;12.59;89.70
2549;BME280;1284;53.520;10.248;2022-11-15T10:53:17;100336.59;;;12.59;90.09
2549;BME280;1284;53.520;10.248;2022-11-15T10:55:50;100339.59;;;12.50;90.72
2549;BME280;1284;53.520;10.248;2022-11-15T11:00:47;100335.44;;;12.60;90.82
2549;BME280;1284;53.520;10.248;2022-11-15T11:03:29;100329.69;;;12.68;90.88
2549;BME280;1284;53.520;10.248;2022-11-15T11:08:32;100326.59;;;12.66;91.19
2549;BME280;1284;53.520;10.248;2022-11-15T11:11:02;100323.19;;;12.73;91.41
2549;BME280;1284;53.520;10.248;2022-11-15T11:13:38;100329.72;;;12.76;91.56
2549;BME280;1284;53.520;10.248;2022-11-15T11:24:32;100307.41;;;12.86;91.10
2549;BME280;1284;53.520;10.248;2022-11-15T11:27:12;100311.31;;;12.92;91.14
2549;BME280;1284;53.520;10.248;2022-11-15T11:48:47;100295.56;;;13.04;90.85
2549;BME280;1284;53.520;10.248;2022-11-15T11:53:47;100285.91;;;13.03;91.05
2549;BME280;1284;53.520;10.248;2022-11-15T11:56:35;100293.63;;;13.05;90.96
2549;BME280;1284;53.520;10.248;2022-11-15T11:59:10;100282.75;;;12.98;91.26
2549;BME280;1284;53.520;10.248;2022-11-15T12:01:44;100283.97;;;13.04;91.64
2549;BME280;1284;53.520;10.248;2022-11-15T12:04:20;100283.97;;;13.04;91.30
2549;BME280;1284;53.520;10.248;2022-11-15T12:06:50;100265.06;;;13.11;90.52
2549;BME280;1284;53.520;10.248;2022-11-15T12:11:57;100265.50;;;13.20;90.86
2549;BME280;1284;53.520;10.248;2022-11-15T12:14:34;100270.94;;;13.27;90.22
2549;BME280;1284;53.520;10.248;2022-11-15T12:17:01;100276.72;;;13.22;90.59
2549;BME280;1284;53.520;10.248;2022-11-15T12:19:28;100269.34;;;13.22;90.81
2549;BME280;1284;53.520;10.248;2022-11-15T12:22:09;100267.44;;;13.23;90.81
2549;BME280;1284;53.520;10.248;2022-11-15T12:24:45;100266.31;;;13.27;91.11
2549;BME280;1284;53.520;10.248;2022-11-15T12:27:17;100267.84;;;13.32;90.68
2549;BME280;1284;53.520;10.248;2022-11-15T12:29:48;100255.09;;;13.36;91.21
2549;BME280;1284;53.520;10.248;2022-11-15T12:32:33;100253.91;;;13.12;90.67
2549;BME280;1284;53.520;10.248;2022-11-15T12:35:02;100238.88;;;13.22;91.30
2549;BME280;1284;53.520;10.248;2022-11-15T12:42:40;100241.63;;;13.46;90.55
2549;BME280;1284;53.520;10.248;2022-11-15T12:45:28;100245.88;;;13.58;90.37
2549;BME280;1284;53.520;10.248;2022-11-15T13:07:03;100238.94;;;13.82;89.66
2549;BME280;1284;53.520;10.248;2022-11-15T13:11:56;100242.81;;;13.81;89.20
2549;BME280;1284;53.520;10.248;2022-11-15T13:20:33;100220.75;;;13.82;89.63
2549;BME280;1284;53.520;10.248;2022-11-15T13:27:57;100208.78;;;13.90;89.26
2549;BME280;1284;53.520;10.248;2022-11-15T13:30:26;100213.44;;;13.79;89.46
2549;BME280;1284;53.520;10.248;2022-11-15T13:32:52;100209.56;;;13.63;90.59
2549;BME280;1284;53.520;10.248;2022-11-15T13:35:21;100199.50;;;13.81;90.25
2549;BME280;1284;53.520;10.248;2022-11-15T13:37:48;100183.25;;;13.81;89.81
2549;BME280;1284;53.520;10.248;2022-11-15T13:40:28;100175.53;;;13.79;90.00
2549;BME280;1284;53.520;10.248;2022-11-15T13:42:58;100182.47;;;13.80;90.32
2549;BME280;1284;53.520;10.248;2022-11-15T13:45:24;100182.88;;;13.82;90.18
2549;BME280;1284;53.520;10.248;2022-11-15T13:47:53;100171.66;;;13.87;90.08
2549;BME280;1284;53.520;10.248;2022-11-15T13:50:21;100163.53;;;13.94;89.60
2549;BME280;1284;53.520;10.248;2022-11-15T13:52:49;100175.53;;;13.90;89.66
2549;BME280;1284;53.520;10.248;2022-11-15T13:55:21;100173.97;;;13.96;89.53
2549;BME280;1284;53.520;10.248;2022-11-15T13:57:57;100172.44;;;13.88;89.77
2549;BME280;1284;53.520;10.248;2022-11-15T14:02:52;100175.53;;;13.90;89.51
2549;BME280;1284;53.520;10.248;2022-11-15T14:05:20;100170.13;;;13.90;89.75
2549;BME280;1284;53.520;10.248;2022-11-15T14:08:03;100164.31;;;13.91;89.74
2549;BME280;1284;53.520;10.248;2022-11-15T14:12:54;100173.59;;;13.83;89.86
2549;BME280;1284;53.520;10.248;2022-11-15T14:15:33;100178.63;;;13.81;90.22
2549;BME280;1284;53.520;10.248;2022-11-15T14:17:59;100181.31;;;13.92;89.82
2549;BME280;1284;53.520;10.248;2022-11-15T14:23:05;100177.06;;;13.94;89.48
2549;BME280;1284;53.520;10.248;2022-11-15T14:25:53;100168.16;;;13.90;89.58
2549;BME280;1284;53.520;10.248;2022-11-15T14:30:51;100163.53;;;13.87;89.72
2549;BME280;1284;53.520;10.248;2022-11-15T14:33:23;100167.41;;;13.90;89.82
2549;BME280;1284;53.520;10.248;2022-11-15T14:35:51;100156.97;;;13.81;89.67
2549;BME280;1284;53.520;10.248;2022-11-15T14:38:17;100158.50;;;13.82;89.59
2549;BME280;1284;53.520;10.248;2022-11-15T14:40:43;100158.13;;;13.80;89.48
2549;BME280;1284;53.520;10.248;2022-11-15T14:43:13;100162.38;;;13.85;89.71
2549;BME280;1284;53.520;10.248;2022-11-15T14:45:39;100154.66;;;13.76;89.78
2549;BME280;1284;53.520;10.248;2022-11-15T14:48:05;100148.47;;;13.79;89.57
2549;BME280;1284;53.520;10.248;2022-11-15T14:50:31;100156.59;;;13.79;89.48
2549;BME280;1284;53.520;10.248;2022-11-15T14:52:57;100150.78;;;13.77;89.63
2549;BME280;1284;53.520;10.248;2022-11-15T14:55:29;100165.50;;;13.76;89.62
2549;BME280;1284;53.520;10.248;2022-11-15T14:57:56;100155.03;;;13.82;89.39
2549;BME280;1284;53.520;10.248;2022-11-15T15:00:22;100150.03;;;13.66;89.80
2549;BME280;1284;53.520;10.248;2022-11-15T15:02:48;100146.94;;;13.64;90.04
2549;BME280;1284;53.520;10.248;2022-11-15T15:07:44;100145.00;;;13.54;90.10
2549;BME280;1284;53.520;10.248;2022-11-15T15:10:11;100145.41;;;13.52;90.27
2549;BME280;1284;53.520;10.248;2022-11-15T15:12:37;100139.19;;;13.59;89.62
2549;BME280;1284;53.520;10.248;2022-11-15T15:15:04;100136.09;;;13.53;90.26
2549;BME280;1284;53.520;10.248;2022-11-15T15:17:29;100143.44;;;13.49;90.62
2549;BME280;1284;53.520;10.248;2022-11-15T15:19:55;100137.66;;;13.44;90.26
2549;BME280;1284;53.520;10.248;2022-11-15T15:22:21;100140.34;;;13.44;90.24
2549;BME280;1284;53.520;10.248;2022-11-15T15:24:50;100151.56;;;13.39;90.38
2549;BME280;1284;53.520;10.248;2022-11-15T15:27:16;100146.53;;;13.34;90.72
2549;BME280;1284;53.520;10.248;2022-11-15T15:29:41;100142.28;;;13.33;90.47
2549;BME280;1284;53.520;10.248;2022-11-15T15:32:08;100135.34;;;13.35;90.23
2549;BME280;1284;53.520;10.248;2022-11-15T15:34:34;100142.69;;;13.42;89.96
2549;BME280;1284;53.520;10.248;2022-11-15T15:37:21;100146.13;;;13.32;90.10
2549;BME280;1284;53.520;10.248;2022-11-15T15:39:54;100159.28;;;13.23;90.76
2549;BME280;1284;53.520;10.248;2022-11-15T15:42:21;100150.00;;;13.17;91.55
2549;BME280;1284;53.520;10.248;2022-11-15T15:44:47;100138.41;;;13.27;91.06
2549;BME280;1284;53.520;10.248;2022-11-15T15:47:16;100143.81;;;13.16;91.44
2549;BME280;1284;53.520;10.248;2022-11-15T15:49:42;100140.75;;;13.18;91.98
2549;BME280;1284;53.520;10.248;2022-11-15T15:52:08;100149.19;;;12.99;93.45
2549;BME280;1284;53.520;10.248;2022-11-15T15:54:33;100143.03;;;13.09;92.93
2549;BME280;1284;53.520;10.248;2022-11-15T15:56:59;100143.06;;;13.19;93.08
2549;BME280;1284;53.520;10.248;2022-11-15T15:59:24;100145.38;;;13.21;92.71
2549;BME280;1284;53.520;10.248;2022-11-15T16:01:52;100149.25;;;13.20;92.70
2549;BME280;1284;53.520;10.248;2022-11-15T16:04:18;100147.31;;;13.24;92.46
2549;BME280;1284;53.520;10.248;2022-11-15T16:06:44;100146.16;;;13.25;92.26
2549;BME280;1284;53.520;10.248;2022-11-15T16:09:14;100146.16;;;13.28;92.03
2549;BME280;1284;53.520;10.248;2022-11-15T16:11:41;100144.22;;;13.25;92.45
2549;BME280;1284;53.520;10.248;2022-11-15T16:14:08;100139.19;;;13.24;92.93
2549;BME280;1284;53.520;10.248;2022-11-15T16:16:34;100138.41;;;13.20;92.62
2549;BME280;1284;53.520;10.248;2022-11-15T16:19:01;100130.69;;;13.22;92.83
2549;BME280;1284;53.520;10.248;2022-11-15T16:21:27;100129.13;;;13.14;92.85
2549;BME280;1284;53.520;10.248;2022-11-15T16:23:53;100118.31;;;13.14;93.61
2549;BME280;1284;53.520;10.248;2022-11-15T16:26:25;100121.03;;;13.21;93.22
2549;BME280;1284;53.520;10.248;2022-11-15T16:28:53;100121.41;;;13.23;93.50
2549;BME280;1284;53.520;10.248;2022-11-15T16:31:19;100116.41;;;13.21;93.44
2549;BME280;1284;53.520;10.248;2022-11-15T16:33:47;100114.88;;;13.24;93.14
2549;BME280;1284;53.520;10.248;2022-11-15T16:36:23;100112.91;;;13.24;93.16
2549;BME280;1284;53.520;10.248;2022-11-15T16:38:49;100109.03;;;13.18;93.53
2549;BME280;1284;53.520;10.248;2022-11-15T16:41:16;100097.84;;;13.13;93.92